Time;durP1;ratioP1;P1;durP2;ratioP2;P2;SDS_P1;SDS_P2;PMS_P1;PMS_P2;Temp;Humidity;BMP_temperature;BMP_pressure;BME280_temperature;BME280_humidity;BME280_pressure;Samples;Min_cycle;Max_cycle;Signal;HPM_P1;HPM_P2
2023/04/10 00:01:11;;;;;;;35.67;21.25;;;;;;;;;;5137480;27;20027;-72
2023/04/10 00:03:56;;;;;;;30.38;20.58;;;;;;;;;;5143789;27;20027;-71
2023/04/10 00:06:42;;;;;;;33.63;21.38;;;;;;;;;;5142980;27;20019;-70
2023/04/10 00:09:29;;;;;;;33.90;21.33;;;;;;;;;;5137064;27;20038;-72
2023/04/10 00:12:14;;;;;;;30.33;20.30;;;;;;;;;;5136876;27;20436;-71
2023/04/10 00:15:00;;;;;;;30.50;21.13;;;;;;;;;;5137466;27;20024;-71
2023/04/10 00:17:46;;;;;;;31.13;20.45;;;;;;;;;;5123375;27;20113;-71
2023/04/10 00:20:31;;;;;;;33.13;21.38;;;;;;;;;;5122735;27;20029;-70
2023/04/10 00:23:17;;;;;;;32.00;21.55;;;;;;;;;;5127447;27;20033;-71
2023/04/10 00:26:02;;;;;;;30.05;20.80;;;;;;;;;;5141693;27;20027;-72
2023/04/10 00:28:48;;;;;;;31.98;20.95;;;;;;;;;;5136405;27;20023;-72
2023/04/10 00:31:34;;;;;;;32.30;21.48;;;;;;;;;;5136059;27;20047;-71
2023/04/10 00:34:19;;;;;;;28.40;19.73;;;;;;;;;;5136385;27;20055;-72
2023/04/10 00:37:06;;;;;;;30.90;20.20;;;;;;;;;;5120633;27;20019;-71
2023/04/10 00:39:51;;;;;;;33.10;19.88;;;;;;;;;;5121978;27;20023;-72
2023/04/10 00:42:37;;;;;;;31.33;20.35;;;;;;;;;;5136361;27;20008;-71
2023/04/10 00:45:23;;;;;;;31.63;20.05;;;;;;;;;;5136271;27;20027;-72
2023/04/10 00:48:08;;;;;;;34.30;21.13;;;;;;;;;;5136291;27;20037;-71
2023/04/10 00:50:54;;;;;;;33.05;20.85;;;;;;;;;;5135702;27;20473;-71
2023/04/10 00:53:40;;;;;;;34.15;22.67;;;;;;;;;;5135509;27;20458;-72
2023/04/10 00:56:25;;;;;;;32.65;21.63;;;;;;;;;;5136204;27;20072;-70
2023/04/10 00:59:11;;;;;;;33.70;22.20;;;;;;;;;;5121327;27;20039;-72
2023/04/10 01:01:57;;;;;;;34.50;21.85;;;;;;;;;;5121979;27;20015;-71
2023/04/10 01:04:43;;;;;;;32.67;21.15;;;;;;;;;;5136059;27;20335;-70
2023/04/10 01:07:47;;;;;;;36.90;22.63;;;;;;;;;;5121433;27;20122;-71
2023/04/10 01:10:37;;;;;;;31.05;21.08;;;;;;;;;;5121638;27;20019;-71
2023/04/10 01:13:22;;;;;;;32.35;21.52;;;;;;;;;;5134952;27;20026;-72
2023/04/10 01:16:13;;;;;;;33.30;21.10;;;;;;;;;;5120532;27;20018;-71
2023/04/10 01:19:04;;;;;;;32.75;22.13;;;;;;;;;;5135119;27;20064;-71
2023/04/10 01:21:52;;;;;;;30.50;20.00;;;;;;;;;;5120470;27;20019;-72
2023/04/10 01:24:56;;;;;;;30.38;20.85;;;;;;;;;;5121716;27;20381;-72
2023/04/10 01:27:42;;;;;;;30.90;19.85;;;;;;;;;;5121083;27;20020;-71
2023/04/10 01:30:28;;;;;;;33.03;22.13;;;;;;;;;;5119540;27;20458;-70
2023/04/10 01:33:19;;;;;;;32.72;21.15;;;;;;;;;;5135432;27;20389;-71
2023/04/10 01:36:06;;;;;;;34.15;22.50;;;;;;;;;;5120613;27;20062;-71
2023/04/10 01:38:53;;;;;;;34.13;21.77;;;;;;;;;;5121049;27;20450;-72
2023/04/10 01:41:40;;;;;;;32.78;20.50;;;;;;;;;;5121504;27;20364;-71
2023/04/10 01:44:27;;;;;;;39.78;22.30;;;;;;;;;;5136010;27;20019;-71
2023/04/10 01:47:14;;;;;;;33.88;21.33;;;;;;;;;;5121759;27;20043;-72
2023/04/10 01:50:00;;;;;;;35.53;21.13;;;;;;;;;;5120651;27;20071;-71
2023/04/10 01:52:46;;;;;;;32.45;22.05;;;;;;;;;;5135230;27;20030;-72
2023/04/10 01:55:32;;;;;;;32.65;21.67;;;;;;;;;;5135004;27;20354;-72
2023/04/10 01:58:18;;;;;;;34.83;22.33;;;;;;;;;;5135126;27;20332;-71
2023/04/10 02:01:03;;;;;;;35.25;21.65;;;;;;;;;;5134854;27;20076;-71
2023/04/10 02:03:49;;;;;;;32.75;21.95;;;;;;;;;;5134736;27;20473;-72
2023/04/10 02:06:49;;;;;;;34.05;21.70;;;;;;;;;;5134873;27;20451;-71
2023/04/10 02:09:39;;;;;;;37.97;21.98;;;;;;;;;;5121105;28;20107;-72
2023/04/10 02:12:35;;;;;;;35.78;22.65;;;;;;;;;;5134528;27;20026;-71
2023/04/10 02:15:21;;;;;;;36.95;22.33;;;;;;;;;;5120641;28;20109;-70
2023/04/10 02:18:08;;;;;;;39.20;23.88;;;;;;;;;;5120392;28;20027;-70
2023/04/10 02:20:54;;;;;;;33.97;22.65;;;;;;;;;;5133892;28;20046;-71
2023/04/10 02:23:40;;;;;;;36.58;23.27;;;;;;;;;;5135111;28;20055;-71
2023/04/10 02:26:26;;;;;;;36.70;23.08;;;;;;;;;;5135262;28;20351;-71
2023/04/10 02:29:11;;;;;;;35.60;23.88;;;;;;;;;;5134449;28;20083;-71
2023/04/10 02:31:57;;;;;;;35.88;22.98;;;;;;;;;;5121265;28;20054;-72
2023/04/10 02:34:42;;;;;;;33.88;22.75;;;;;;;;;;5120605;28;20388;-70
2023/04/10 02:37:28;;;;;;;38.38;23.88;;;;;;;;;;5134979;28;20424;-70
2023/04/10 02:40:14;;;;;;;37.95;23.65;;;;;;;;;;5135501;28;20023;-71
2023/04/10 02:43:00;;;;;;;39.45;24.63;;;;;;;;;;5135564;28;20026;-71
2023/04/10 02:45:46;;;;;;;36.45;22.95;;;;;;;;;;5119061;28;20465;-72
2023/04/10 02:48:31;;;;;;;40.55;25.52;;;;;;;;;;5120745;28;20116;-71
2023/04/10 02:51:17;;;;;;;42.28;26.10;;;;;;;;;;5118611;28;20018;-71
2023/04/10 02:54:03;;;;;;;39.03;24.13;;;;;;;;;;5134409;28;20031;-71
2023/04/10 02:56:49;;;;;;;43.85;24.20;;;;;;;;;;5120538;28;20073;-70
2023/04/10 02:59:34;;;;;;;39.33;24.70;;;;;;;;;;5148562;28;20514;-70
2023/04/10 03:02:20;;;;;;;38.58;24.23;;;;;;;;;;5150372;28;20016;-70
2023/04/10 03:05:07;;;;;;;36.88;24.13;;;;;;;;;;5119933;28;20355;-71
2023/04/10 03:07:53;;;;;;;38.78;23.30;;;;;;;;;;5133890;28;20115;-70
2023/04/10 03:10:38;;;;;;;39.58;24.55;;;;;;;;;;5119555;28;20047;-71
2023/04/10 03:13:24;;;;;;;42.85;25.30;;;;;;;;;;5119417;28;20019;-72
2023/04/10 03:16:10;;;;;;;42.08;26.60;;;;;;;;;;5134384;28;20023;-72
2023/04/10 03:18:56;;;;;;;40.33;25.65;;;;;;;;;;5134408;28;20039;-71
2023/04/10 03:21:41;;;;;;;42.88;26.75;;;;;;;;;;5120577;27;20163;-72
2023/04/10 03:24:27;;;;;;;45.35;26.85;;;;;;;;;;5138272;27;20030;-71
2023/04/10 03:27:13;;;;;;;41.58;26.65;;;;;;;;;;5122300;27;20019;-71
2023/04/10 03:29:59;;;;;;;41.28;27.23;;;;;;;;;;5123617;27;20087;-71
2023/04/10 03:32:45;;;;;;;46.20;26.88;;;;;;;;;;5123951;27;20051;-71
2023/04/10 03:35:30;;;;;;;45.40;28.25;;;;;;;;;;5121937;27;20464;-72
2023/04/10 03:38:16;;;;;;;44.10;27.65;;;;;;;;;;5137839;27;20066;-71
2023/04/10 03:41:02;;;;;;;48.72;28.45;;;;;;;;;;5137021;27;20049;-69
2023/04/10 03:43:47;;;;;;;50.53;28.63;;;;;;;;;;5137254;27;20019;-73
2023/04/10 03:46:33;;;;;;;48.08;27.33;;;;;;;;;;5136936;27;20031;-72
2023/04/10 03:49:18;;;;;;;48.53;28.50;;;;;;;;;;5121810;27;20022;-71
2023/04/10 03:52:04;;;;;;;45.83;27.23;;;;;;;;;;5137263;27;20173;-71
2023/04/10 03:54:50;;;;;;;43.55;26.15;;;;;;;;;;5136433;27;20422;-72
2023/04/10 03:57:36;;;;;;;42.95;25.67;;;;;;;;;;5136754;27;20037;-71
2023/04/10 04:00:23;;;;;;;47.22;27.70;;;;;;;;;;5137120;27;20033;-71
2023/04/10 04:03:11;;;;;;;47.95;26.05;;;;;;;;;;5137378;27;20026;-72
2023/04/10 04:05:56;;;;;;;57.72;28.73;;;;;;;;;;5136710;27;20023;-72
2023/04/10 04:08:42;;;;;;;46.78;27.42;;;;;;;;;;5136110;27;20039;-72
2023/04/10 04:11:27;;;;;;;47.05;27.17;;;;;;;;;;5136640;27;20436;-71
2023/04/10 04:14:13;;;;;;;48.25;27.67;;;;;;;;;;5136504;27;20023;-72
2023/04/10 04:16:59;;;;;;;47.75;27.92;;;;;;;;;;5121302;27;20015;-71
2023/04/10 04:19:44;;;;;;;46.13;27.52;;;;;;;;;;5136677;27;20023;-73
2023/04/10 04:22:30;;;;;;;49.92;28.65;;;;;;;;;;5136341;27;20039;-71
2023/04/10 04:25:15;;;;;;;46.13;27.55;;;;;;;;;;5136703;27;20473;-72
2023/04/10 04:28:01;;;;;;;46.92;27.80;;;;;;;;;;5136861;27;20042;-71
2023/04/10 04:30:46;;;;;;;51.47;28.00;;;;;;;;;;5137292;27;20482;-71
2023/04/10 04:33:32;;;;;;;53.28;28.48;;;;;;;;;;5122847;27;20027;-71
2023/04/10 04:36:18;;;;;;;50.17;28.25;;;;;;;;;;5136094;27;20515;-71
2023/04/10 04:39:03;;;;;;;46.92;26.88;;;;;;;;;;5122956;27;20118;-70
2023/04/10 04:41:49;;;;;;;49.20;27.17;;;;;;;;;;5121556;27;20506;-70
2023/04/10 04:44:34;;;;;;;47.22;28.15;;;;;;;;;;5135922;27;20027;-71
2023/04/10 04:47:21;;;;;;;50.92;28.52;;;;;;;;;;5135953;27;20106;-72
2023/04/10 04:50:07;;;;;;;46.50;28.92;;;;;;;;;;5135692;27;20050;-72
2023/04/10 04:52:52;;;;;;;50.50;30.38;;;;;;;;;;5121010;27;20011;-72
2023/04/10 04:55:38;;;;;;;54.58;30.00;;;;;;;;;;5135995;27;20019;-72
2023/04/10 04:58:24;;;;;;;54.45;31.27;;;;;;;;;;5135738;27;20023;-72
2023/04/10 05:01:09;;;;;;;50.88;30.48;;;;;;;;;;5135108;27;20015;-72
2023/04/10 05:03:55;;;;;;;52.70;29.75;;;;;;;;;;5120217;27;20363;-71
2023/04/10 05:06:40;;;;;;;59.63;31.52;;;;;;;;;;5136123;27;20423;-72
2023/04/10 05:09:26;;;;;;;52.53;31.35;;;;;;;;;;5135529;27;20047;-70
2023/04/10 05:12:12;;;;;;;49.45;30.05;;;;;;;;;;5121654;27;20015;-71
2023/04/10 05:14:57;;;;;;;53.05;30.10;;;;;;;;;;5135405;27;20088;-71
2023/04/10 05:17:43;;;;;;;57.47;31.13;;;;;;;;;;5121225;27;20030;-72
2023/04/10 05:20:28;;;;;;;47.72;29.58;;;;;;;;;;5135612;27;20011;-71
2023/04/10 05:23:15;;;;;;;56.33;31.13;;;;;;;;;;5135197;27;20023;-72
2023/04/10 05:26:01;;;;;;;58.45;31.08;;;;;;;;;;5135289;27;20031;-71
2023/04/10 05:28:46;;;;;;;52.25;29.98;;;;;;;;;;5136310;27;20015;-71
2023/04/10 05:31:32;;;;;;;48.47;29.33;;;;;;;;;;5145473;27;20027;-71
2023/04/10 05:34:18;;;;;;;52.38;30.83;;;;;;;;;;5138328;27;20115;-70
2023/04/10 05:37:03;;;;;;;48.92;28.42;;;;;;;;;;5151506;27;20023;-71
2023/04/10 05:39:49;;;;;;;51.38;29.13;;;;;;;;;;5135742;27;20045;-71
2023/04/10 05:42:34;;;;;;;49.85;29.85;;;;;;;;;;5136013;27;20476;-72
2023/04/10 05:45:22;;;;;;;57.90;31.05;;;;;;;;;;5134965;27;20058;-72
2023/04/10 05:48:08;;;;;;;54.55;30.20;;;;;;;;;;5121789;27;20375;-71
2023/04/10 05:50:53;;;;;;;51.95;30.20;;;;;;;;;;5135094;27;20139;-72
2023/04/10 05:53:39;;;;;;;55.08;30.13;;;;;;;;;;5122043;27;20027;-73
2023/04/10 05:56:24;;;;;;;53.20;29.65;;;;;;;;;;5121247;27;20019;-72
2023/04/10 05:59:11;;;;;;;55.10;30.25;;;;;;;;;;5135333;27;20148;-72
2023/04/10 06:01:56;;;;;;;54.22;29.73;;;;;;;;;;5119800;27;20019;-71
2023/04/10 06:04:42;;;;;;;56.78;30.45;;;;;;;;;;5145999;27;20026;-70
2023/04/10 06:07:28;;;;;;;49.90;28.77;;;;;;;;;;5125653;27;20531;-72
2023/04/10 06:10:13;;;;;;;53.30;28.50;;;;;;;;;;5119541;27;20030;-70
2023/04/10 06:12:59;;;;;;;51.88;29.08;;;;;;;;;;5120246;27;20034;-71
2023/04/10 06:15:45;;;;;;;51.90;29.10;;;;;;;;;;5134695;27;20023;-71
2023/04/10 06:18:30;;;;;;;53.25;29.13;;;;;;;;;;5135093;28;20473;-73
2023/04/10 06:21:16;;;;;;;50.13;28.40;;;;;;;;;;5134434;28;20027;-71
2023/04/10 06:24:02;;;;;;;58.13;29.98;;;;;;;;;;5120243;28;20108;-72
2023/04/10 06:26:47;;;;;;;49.85;30.00;;;;;;;;;;5120879;28;20098;-71
2023/04/10 06:29:33;;;;;;;63.67;29.08;;;;;;;;;;5134246;28;20019;-71
2023/04/10 06:32:18;;;;;;;52.53;28.35;;;;;;;;;;5134617;28;20415;-71
2023/04/10 06:35:04;;;;;;;45.50;27.42;;;;;;;;;;5134574;28;20087;-71
2023/04/10 06:37:50;;;;;;;43.83;27.25;;;;;;;;;;5134186;28;20023;-72
2023/04/10 06:40:35;;;;;;;48.85;29.17;;;;;;;;;;5135360;28;20016;-73
2023/04/10 06:43:21;;;;;;;42.95;26.60;;;;;;;;;;5134085;28;20092;-71
2023/04/10 06:46:07;;;;;;;44.03;27.27;;;;;;;;;;5134452;28;20027;-72
2023/04/10 06:48:52;;;;;;;43.63;27.30;;;;;;;;;;5119100;28;20046;-72
2023/04/10 06:51:38;;;;;;;53.15;27.63;;;;;;;;;;5135150;28;20015;-72
2023/04/10 06:54:24;;;;;;;45.53;27.85;;;;;;;;;;5133786;28;20176;-71
2023/04/10 06:57:09;;;;;;;53.92;27.98;;;;;;;;;;5133775;27;20038;-71
2023/04/10 06:59:55;;;;;;;44.30;26.02;;;;;;;;;;5138195;27;20011;-72
2023/04/10 07:02:40;;;;;;;46.67;28.10;;;;;;;;;;5138641;27;20106;-71
2023/04/10 07:05:26;;;;;;;45.85;28.15;;;;;;;;;;5137233;27;20075;-72
2023/04/10 07:08:11;;;;;;;47.38;27.65;;;;;;;;;;5137877;27;20055;-72
2023/04/10 07:10:57;;;;;;;45.65;28.00;;;;;;;;;;5122639;27;20076;-71
2023/04/10 07:13:43;;;;;;;47.45;27.05;;;;;;;;;;5138017;27;20083;-72
2023/04/10 07:16:28;;;;;;;49.30;28.65;;;;;;;;;;5123933;27;20022;-71
2023/04/10 07:19:14;;;;;;;47.95;27.77;;;;;;;;;;5137726;27;20455;-72
2023/04/10 07:22:00;;;;;;;48.28;27.52;;;;;;;;;;5138140;27;20027;-72
2023/04/10 07:24:45;;;;;;;45.17;26.67;;;;;;;;;;5137894;27;20046;-73
2023/04/10 07:27:31;;;;;;;44.08;26.83;;;;;;;;;;5137762;27;20031;-72
2023/04/10 07:30:17;;;;;;;49.22;27.90;;;;;;;;;;5138407;27;20027;-73
2023/04/10 07:33:03;;;;;;;42.83;25.50;;;;;;;;;;5123673;27;20027;-74
2023/04/10 07:35:48;;;;;;;40.78;25.83;;;;;;;;;;5137315;27;20067;-72
2023/04/10 07:38:34;;;;;;;45.45;26.13;;;;;;;;;;5123864;27;20068;-73
2023/04/10 07:41:21;;;;;;;44.53;25.42;;;;;;;;;;5123536;27;20367;-71
2023/04/10 07:44:06;;;;;;;42.08;25.00;;;;;;;;;;5137062;27;20367;-72
2023/04/10 07:46:52;;;;;;;41.22;24.42;;;;;;;;;;5136993;27;20023;-72
2023/04/10 07:49:38;;;;;;;40.97;25.88;;;;;;;;;;5123427;27;20026;-71
2023/04/10 07:52:23;;;;;;;40.58;25.50;;;;;;;;;;5136754;27;20023;-71
2023/04/10 07:55:09;;;;;;;47.05;25.33;;;;;;;;;;5123554;27;20030;-72
2023/04/10 07:57:55;;;;;;;42.90;23.83;;;;;;;;;;5137151;27;20023;-71
2023/04/10 08:00:40;;;;;;;36.58;24.85;;;;;;;;;;5136720;27;20026;-71
2023/04/10 08:03:26;;;;;;;44.45;24.95;;;;;;;;;;5136526;27;20034;-71
2023/04/10 08:06:12;;;;;;;43.20;24.35;;;;;;;;;;5136027;27;20030;-71
2023/04/10 08:08:57;;;;;;;38.58;25.08;;;;;;;;;;5122117;27;20356;-72
2023/04/10 08:11:43;;;;;;;33.22;23.10;;;;;;;;;;5135961;27;20110;-72
2023/04/10 08:14:29;;;;;;;33.50;22.13;;;;;;;;;;5136921;27;20019;-72
2023/04/10 08:17:15;;;;;;;40.50;23.80;;;;;;;;;;5137247;27;20019;-72
2023/04/10 08:20:00;;;;;;;33.05;22.58;;;;;;;;;;5135869;27;20442;-72
2023/04/10 08:22:46;;;;;;;37.88;23.55;;;;;;;;;;5137417;27;20023;-73
2023/04/10 08:25:31;;;;;;;39.47;24.52;;;;;;;;;;5135959;27;20056;-72
2023/04/10 08:28:18;;;;;;;38.70;24.52;;;;;;;;;;5135841;27;20018;-71
2023/04/10 08:31:04;;;;;;;36.05;24.35;;;;;;;;;;5136834;27;20015;-71
2023/04/10 08:33:50;;;;;;;36.30;24.10;;;;;;;;;;5136642;27;20027;-71
2023/04/10 08:36:36;;;;;;;33.58;22.75;;;;;;;;;;5122438;27;20080;-71
2023/04/10 08:39:21;;;;;;;38.55;24.48;;;;;;;;;;5136422;27;20011;-72
2023/04/10 08:42:07;;;;;;;35.13;23.38;;;;;;;;;;5136430;27;20019;-72
2023/04/10 08:44:53;;;;;;;35.08;22.42;;;;;;;;;;5135550;27;20018;-70
2023/04/10 08:47:40;;;;;;;50.60;22.88;;;;;;;;;;5136107;27;20031;-72
2023/04/10 08:50:27;;;;;;;33.40;23.20;;;;;;;;;;5121810;27;20015;-72
2023/04/10 08:53:13;;;;;;;34.88;22.98;;;;;;;;;;5120667;27;20015;-72
2023/04/10 08:56:00;;;;;;;36.88;22.75;;;;;;;;;;5121317;27;20019;-72
2023/04/10 08:58:46;;;;;;;30.80;22.10;;;;;;;;;;5136497;27;20034;-73
2023/04/10 09:01:33;;;;;;;38.13;22.38;;;;;;;;;;5121524;27;20023;-73
2023/04/10 09:04:19;;;;;;;38.85;22.80;;;;;;;;;;5134911;27;20034;-73
2023/04/10 09:07:05;;;;;;;36.03;22.55;;;;;;;;;;5120434;27;20467;-73
2023/04/10 09:09:51;;;;;;;28.88;21.08;;;;;;;;;;5135468;27;20110;-71
2023/04/10 09:12:46;;;;;;;32.15;21.73;;;;;;;;;;5136091;27;20451;-72
2023/04/10 09:15:52;;;;;;;27.65;19.80;;;;;;;;;;5120013;27;20055;-73
2023/04/10 09:18:46;;;;;;;34.83;21.42;;;;;;;;;;5136137;27;20043;-71
2023/04/10 09:21:31;;;;;;;28.48;20.00;;;;;;;;;;5135163;27;20455;-72
2023/04/10 09:24:17;;;;;;;26.65;20.67;;;;;;;;;;5135157;27;20082;-73
2023/04/10 09:27:03;;;;;;;30.25;20.20;;;;;;;;;;5135143;27;20019;-72
2023/04/10 09:29:48;;;;;;;30.33;19.38;;;;;;;;;;5135786;27;20023;-73
2023/04/10 09:32:35;;;;;;;26.17;18.80;;;;;;;;;;5121520;27;20095;-72
2023/04/10 09:35:21;;;;;;;24.20;18.70;;;;;;;;;;5135505;27;20019;-72
2023/04/10 09:38:16;;;;;;;28.20;18.23;;;;;;;;;;5134675;27;20076;-72
2023/04/10 09:41:07;;;;;;;25.13;17.17;;;;;;;;;;5121576;27;20023;-72
2023/04/10 09:44:08;;;;;;;26.75;19.00;;;;;;;;;;5120679;27;20023;-71
2023/04/10 09:46:54;;;;;;;25.83;17.48;;;;;;;;;;5121835;27;20023;-71
2023/04/10 09:49:47;;;;;;;27.33;18.17;;;;;;;;;;5135449;27;20355;-73
2023/04/10 09:52:33;;;;;;;29.45;17.45;;;;;;;;;;5135064;27;20383;-71
2023/04/10 09:55:19;;;;;;;24.40;16.73;;;;;;;;;;5134294;27;20020;-72
2023/04/10 09:58:05;;;;;;;22.85;16.92;;;;;;;;;;5135345;27;20027;-72
2023/04/10 10:00:51;;;;;;;22.92;16.50;;;;;;;;;;5120921;27;20023;-72
2023/04/10 10:03:37;;;;;;;29.13;16.58;;;;;;;;;;5134896;27;20015;-71
2023/04/10 10:06:23;;;;;;;21.63;15.90;;;;;;;;;;5119830;27;20034;-72
2023/04/10 10:09:09;;;;;;;24.90;16.10;;;;;;;;;;5120491;27;20091;-72
2023/04/10 10:11:54;;;;;;;23.27;16.48;;;;;;;;;;5120864;28;20042;-73
2023/04/10 10:14:46;;;;;;;24.02;16.23;;;;;;;;;;5134566;27;20026;-72
2023/04/10 10:17:37;;;;;;;24.55;15.50;;;;;;;;;;5135100;27;20011;-72
2023/04/10 10:20:23;;;;;;;24.75;15.15;;;;;;;;;;5152720;28;20019;-72
2023/04/10 10:23:09;;;;;;;19.58;13.98;;;;;;;;;;5135068;28;20011;-73
2023/04/10 10:25:57;;;;;;;16.98;13.10;;;;;;;;;;5135399;28;20102;-71
2023/04/10 10:28:45;;;;;;;19.67;13.18;;;;;;;;;;5134953;28;20015;-72
2023/04/10 10:31:34;;;;;;;23.02;13.57;;;;;;;;;;5136792;27;20055;-71
2023/04/10 10:34:20;;;;;;;13.63;11.23;;;;;;;;;;5138513;27;20467;-71
2023/04/10 10:37:06;;;;;;;16.83;12.38;;;;;;;;;;5139696;27;20034;-72
2023/04/10 10:39:57;;;;;;;15.73;11.73;;;;;;;;;;5130658;27;20075;-72
2023/04/10 10:42:54;;;;;;;15.43;10.52;;;;;;;;;;5144794;27;20019;-71
2023/04/10 10:45:45;;;;;;;14.50;10.68;;;;;;;;;;5138748;27;20039;-71
2023/04/10 10:48:31;;;;;;;17.90;11.90;;;;;;;;;;5138131;27;20011;-71
2023/04/10 10:51:16;;;;;;;16.95;11.30;;;;;;;;;;5138420;27;20050;-71
2023/04/10 10:54:02;;;;;;;16.00;11.05;;;;;;;;;;5137576;27;20015;-71
2023/04/10 10:56:47;;;;;;;16.15;11.80;;;;;;;;;;5138022;27;20022;-72
2023/04/10 10:59:42;;;;;;;20.60;12.48;;;;;;;;;;5138656;27;20396;-72
2023/04/10 11:02:27;;;;;;;15.82;10.55;;;;;;;;;;5137919;27;20015;-72
2023/04/10 11:05:33;;;;;;;16.67;10.95;;;;;;;;;;5124784;27;20106;-71
2023/04/10 11:08:43;;;;;;;16.30;10.82;;;;;;;;;;5135083;27;20490;-71
2023/04/10 11:11:28;;;;;;;15.85;10.57;;;;;;;;;;5137323;27;20427;-72
2023/04/10 11:14:16;;;;;;;13.30;10.60;;;;;;;;;;5122540;27;20030;-71
2023/04/10 11:17:02;;;;;;;14.38;10.63;;;;;;;;;;5122951;27;20453;-71
2023/04/10 11:20:01;;;;;;;18.70;11.20;;;;;;;;;;5138774;27;20076;-72
2023/04/10 11:23:06;;;;;;;18.33;10.95;;;;;;;;;;5122720;27;20083;-71
2023/04/10 11:25:52;;;;;;;19.83;11.90;;;;;;;;;;5137814;27;20023;-72
2023/04/10 11:28:38;;;;;;;15.95;10.93;;;;;;;;;;5123598;27;20019;-71
2023/04/10 11:31:24;;;;;;;15.90;10.73;;;;;;;;;;5137726;27;20068;-72
2023/04/10 11:34:10;;;;;;;28.35;13.63;;;;;;;;;;5121886;27;20027;-72
2023/04/10 11:36:56;;;;;;;14.80;10.23;;;;;;;;;;5137111;27;20015;-72
2023/04/10 11:39:41;;;;;;;14.48;10.68;;;;;;;;;;5137574;27;20019;-71
2023/04/10 11:42:27;;;;;;;14.40;10.07;;;;;;;;;;5136834;27;20030;-72
2023/04/10 11:45:23;;;;;;;16.80;10.38;;;;;;;;;;5136759;27;20012;-72
2023/04/10 11:48:08;;;;;;;14.10;10.30;;;;;;;;;;5137484;27;20016;-72
2023/04/10 11:50:54;;;;;;;14.45;10.52;;;;;;;;;;5137251;27;20019;-71
2023/04/10 11:53:40;;;;;;;14.93;10.10;;;;;;;;;;5137146;27;20019;-71
2023/04/10 11:56:26;;;;;;;22.63;10.98;;;;;;;;;;5137228;27;20023;-73
2023/04/10 11:59:18;;;;;;;15.02;10.35;;;;;;;;;;5121887;27;20019;-73
2023/04/10 12:02:04;;;;;;;12.75;10.30;;;;;;;;;;5121759;27;20102;-71
2023/04/10 12:04:56;;;;;;;13.07;10.02;;;;;;;;;;5121619;27;20030;-71
2023/04/10 12:07:42;;;;;;;13.88;9.52;;;;;;;;;;5136795;27;20039;-71
2023/04/10 12:10:43;;;;;;;12.82;9.68;;;;;;;;;;5137152;27;20019;-72
2023/04/10 12:13:30;;;;;;;16.92;9.27;;;;;;;;;;5136633;27;20019;-73
2023/04/10 12:16:15;;;;;;;14.55;10.05;;;;;;;;;;5123135;27;20458;-72
2023/04/10 12:19:01;;;;;;;14.30;9.70;;;;;;;;;;5136830;27;20084;-71
2023/04/10 12:21:47;;;;;;;13.77;9.20;;;;;;;;;;5136285;27;20019;-71
2023/04/10 12:25:00;;;;;;;11.75;8.45;;;;;;;;;;5137121;27;20019;-72
2023/04/10 12:27:47;;;;;;;16.77;9.27;;;;;;;;;;5121612;27;20175;-73
2023/04/10 12:30:33;;;;;;;11.07;8.43;;;;;;;;;;5137135;27;20427;-72
2023/04/10 12:33:20;;;;;;;11.40;8.30;;;;;;;;;;5122947;27;20022;-72
2023/04/10 12:36:18;;;;;;;11.68;8.60;;;;;;;;;;5136170;27;20050;-71
2023/04/10 12:39:04;;;;;;;11.25;8.63;;;;;;;;;;5122939;27;20119;-72
2023/04/10 12:41:50;;;;;;;11.43;8.25;;;;;;;;;;5136839;27;20054;-71
2023/04/10 12:44:48;;;;;;;10.90;8.90;;;;;;;;;;5122540;27;20080;-71
2023/04/10 12:47:53;;;;;;;9.85;8.27;;;;;;;;;;5122802;27;20099;-71
2023/04/10 12:50:45;;;;;;;10.15;8.57;;;;;;;;;;5122619;27;20019;-72
2023/04/10 12:53:31;;;;;;;10.73;7.50;;;;;;;;;;5136003;27;20392;-71
2023/04/10 12:56:19;;;;;;;11.45;7.85;;;;;;;;;;5122128;27;20466;-72
2023/04/10 12:59:07;;;;;;;10.52;8.13;;;;;;;;;;5123046;27;20020;-71
2023/04/10 13:01:53;;;;;;;12.57;8.43;;;;;;;;;;5122254;27;20364;-72
2023/04/10 13:04:39;;;;;;;13.75;8.93;;;;;;;;;;5136401;27;20405;-71
2023/04/10 13:07:24;;;;;;;17.83;9.27;;;;;;;;;;5122291;27;20136;-71
2023/04/10 13:10:10;;;;;;;16.23;8.77;;;;;;;;;;5121761;27;20031;-70
2023/04/10 13:12:56;;;;;;;11.27;7.88;;;;;;;;;;5122236;27;20374;-71
2023/04/10 13:15:41;;;;;;;14.13;8.38;;;;;;;;;;5135402;27;20023;-71
2023/04/10 13:18:27;;;;;;;13.90;9.13;;;;;;;;;;5136405;27;20079;-71
2023/04/10 13:21:17;;;;;;;10.55;8.63;;;;;;;;;;5135196;27;20370;-72
2023/04/10 13:24:02;;;;;;;11.90;8.98;;;;;;;;;;5134641;27;20033;-71
2023/04/10 13:26:48;;;;;;;14.70;9.35;;;;;;;;;;5122224;27;20126;-72
2023/04/10 13:29:34;;;;;;;11.85;9.30;;;;;;;;;;5135008;27;20030;-71
2023/04/10 13:32:20;;;;;;;13.23;8.30;;;;;;;;;;5119740;27;20031;-71
2023/04/10 13:35:06;;;;;;;11.38;8.63;;;;;;;;;;5134896;27;20068;-71
2023/04/10 13:37:52;;;;;;;15.10;8.57;;;;;;;;;;5135714;27;20092;-73
2023/04/10 13:40:37;;;;;;;11.38;8.50;;;;;;;;;;5121493;27;20030;-70
2023/04/10 13:43:23;;;;;;;14.45;8.27;;;;;;;;;;5120179;27;20026;-71
2023/04/10 13:46:08;;;;;;;15.35;8.20;;;;;;;;;;5134495;27;20008;-71
2023/04/10 13:48:54;;;;;;;22.27;8.32;;;;;;;;;;5134674;27;20498;-71
2023/04/10 13:51:39;;;;;;;27.83;7.80;;;;;;;;;;5134578;27;20018;-72
2023/04/10 13:54:25;;;;;;;11.32;7.90;;;;;;;;;;5133619;27;20020;-71
2023/04/10 13:57:11;;;;;;;9.52;7.90;;;;;;;;;;5134291;27;20023;-70
2023/04/10 13:59:56;;;;;;;12.70;8.88;;;;;;;;;;5135238;27;20012;-73
2023/04/10 14:02:42;;;;;;;9.25;7.45;;;;;;;;;;5119103;27;20035;-71
2023/04/10 14:05:27;;;;;;;13.20;7.95;;;;;;;;;;5119903;27;20031;-72
2023/04/10 14:08:14;;;;;;;12.50;7.63;;;;;;;;;;5133793;27;20367;-70
2023/04/10 14:11:00;;;;;;;13.80;8.50;;;;;;;;;;5134690;27;20102;-72
2023/04/10 14:13:45;;;;;;;18.45;8.80;;;;;;;;;;5134029;27;20143;-71
2023/04/10 14:16:31;;;;;;;14.60;8.48;;;;;;;;;;5134152;27;20354;-72
2023/04/10 14:19:17;;;;;;;12.60;7.80;;;;;;;;;;5121014;27;20019;-71
2023/04/10 14:22:02;;;;;;;14.07;7.93;;;;;;;;;;5134103;28;20347;-71
2023/04/10 14:24:48;;;;;;;38.17;9.10;;;;;;;;;;5134625;28;20015;-71
2023/04/10 14:27:33;;;;;;;14.90;8.40;;;;;;;;;;5133987;28;20381;-71
2023/04/10 14:30:19;;;;;;;13.15;8.55;;;;;;;;;;5134245;28;20046;-72
2023/04/10 14:33:05;;;;;;;11.90;9.00;;;;;;;;;;5121710;28;20344;-72
2023/04/10 14:35:51;;;;;;;17.75;8.13;;;;;;;;;;5121322;28;20034;-73
2023/04/10 14:38:37;;;;;;;20.20;8.55;;;;;;;;;;5145762;28;20011;-71
2023/04/10 14:41:22;;;;;;;10.45;7.60;;;;;;;;;;5141512;28;20018;-73
2023/04/10 14:44:08;;;;;;;21.33;8.25;;;;;;;;;;5120113;28;20046;-73
2023/04/10 14:46:54;;;;;;;11.05;8.02;;;;;;;;;;5134660;28;20094;-72
2023/04/10 14:49:40;;;;;;;18.65;7.97;;;;;;;;;;5133883;28;20019;-73
2023/04/10 14:52:25;;;;;;;11.40;8.38;;;;;;;;;;5134687;28;20019;-70
2023/04/10 14:55:11;;;;;;;10.35;8.13;;;;;;;;;;5134515;28;20034;-72
2023/04/10 14:57:56;;;;;;;12.32;7.90;;;;;;;;;;5142394;28;20031;-72
2023/04/10 15:00:43;;;;;;;10.38;8.30;;;;;;;;;;5141431;28;20015;-72
2023/04/10 15:03:28;;;;;;;13.65;8.70;;;;;;;;;;5135291;28;20020;-72
2023/04/10 15:06:14;;;;;;;11.20;8.45;;;;;;;;;;5135976;28;20087;-71
2023/04/10 15:09:00;;;;;;;16.65;8.70;;;;;;;;;;5135072;28;20051;-71
2023/04/10 15:11:46;;;;;;;13.90;9.48;;;;;;;;;;5121463;28;20388;-72
2023/04/10 15:14:31;;;;;;;14.35;9.82;;;;;;;;;;5135025;28;20428;-72
2023/04/10 15:17:19;;;;;;;15.40;9.07;;;;;;;;;;5133460;27;20443;-72
2023/04/10 15:20:05;;;;;;;14.82;9.23;;;;;;;;;;5137375;27;20007;-71
2023/04/10 15:22:51;;;;;;;48.00;11.25;;;;;;;;;;5137979;27;20011;-71
2023/04/10 15:25:36;;;;;;;13.60;8.95;;;;;;;;;;5137458;27;20451;-72
2023/04/10 15:28:22;;;;;;;13.77;8.65;;;;;;;;;;5138440;27;20034;-71
2023/04/10 15:31:08;;;;;;;16.13;9.93;;;;;;;;;;5122226;27;20026;-71
2023/04/10 15:33:54;;;;;;;11.73;8.90;;;;;;;;;;5137461;27;20393;-72
2023/04/10 15:36:39;;;;;;;16.85;9.30;;;;;;;;;;5137571;27;20103;-71
2023/04/10 15:39:25;;;;;;;13.73;9.75;;;;;;;;;;5136783;27;20042;-71
2023/04/10 15:42:11;;;;;;;12.55;9.23;;;;;;;;;;5137349;27;20347;-72
2023/04/10 15:44:56;;;;;;;11.23;8.88;;;;;;;;;;5137142;27;20031;-71
2023/04/10 15:47:44;;;;;;;17.08;10.02;;;;;;;;;;5136690;27;20019;-72
2023/04/10 15:50:30;;;;;;;16.15;9.93;;;;;;;;;;5137022;27;20113;-71
2023/04/10 15:53:15;;;;;;;13.68;9.80;;;;;;;;;;5137653;27;20102;-71
2023/04/10 15:56:05;;;;;;;20.67;10.27;;;;;;;;;;5136565;27;20011;-71
2023/04/10 15:58:50;;;;;;;16.42;10.32;;;;;;;;;;5137550;27;20075;-72
2023/04/10 16:01:36;;;;;;;13.60;10.07;;;;;;;;;;5136864;27;20346;-73
2023/04/10 16:04:21;;;;;;;18.08;9.88;;;;;;;;;;5136454;27;20106;-72
2023/04/10 16:07:07;;;;;;;14.07;10.50;;;;;;;;;;5123431;27;20511;-71
2023/04/10 16:09:54;;;;;;;15.82;10.35;;;;;;;;;;5123541;27;20023;-71
2023/04/10 16:12:39;;;;;;;16.58;10.02;;;;;;;;;;5137082;27;20049;-74
2023/04/10 16:15:26;;;;;;;16.63;10.70;;;;;;;;;;5136362;27;20102;-72